PLVO2: Washita River nr Pauls Valley, OK

Data processed at Thu Jan 04 2018 23:47


All information presented herein is the property of the government of the United States of America and may be revised or deleted at any time without prior notice.
Dissemination of this information without the expressed written consent of the Public Affairs Office, Tulsa District U.S. Army Corps of Engineers is strictly prohibited.
These data are gathered electronically and, as presented, have not undergone any form of quality control. These data are not guaranteed to be valid or correct.
Go to home page.
Go to station list.

Upstream stations:

Downstream station:
Previous Day
Next Day
Current Day
    
SHEF ID:       PLVO2     Washita River near Pauls Valley
STATION TYPE:  

               PRECIP     STAGE  RIV-FLOW  BAT-LOAD
                   in        ft       cfs      volt
              Ccp-Rev   Ccp-Rev   Ccp-Rev   Ccp-Rev
(US/Central)
01/02 00:00      0.00      5.68       479     12.57
01/02 01:00      0.00      5.70       486     12.57
01/02 02:00      0.00      5.64       464     12.57
01/02 03:00      0.00      5.66       471     12.49
01/02 04:00      0.00      5.69       482     12.49
01/02 05:00      0.00      5.65       468     12.49
01/02 06:00      0.00      5.60       450     12.49
01/02 07:00      0.00      5.70       486     12.41
01/02 08:00      0.00      5.69       482     12.41
01/02 09:00      0.00      5.90       563     12.49
01/02 10:00      0.00      5.91       567     12.65
01/02 11:00      0.00      5.79       520     12.97
01/02 12:00      0.00      5.71       490     13.29
01/02 13:00      0.00      5.73       497     13.13
01/02 14:00      0.00      5.74       501     13.21
01/02 15:00      0.00      5.72       493     13.05
01/02 16:00      0.00      5.72       493     12.97
01/02 17:00      0.00      5.66       471     12.81
01/02 18:00      0.00      5.64       464     12.73
01/02 19:00      0.00      5.61       453     12.73
01/02 20:00      0.00      5.59       446     12.65
01/02 21:00      0.00      5.53       426     12.65
01/02 22:00      0.00      5.51       419     12.57
01/02 23:00      0.00      5.47       405     12.57